createdAt,value
2019-02-25T00:00:03.379Z,6.63
2019-02-25T00:01:08.877Z,6.51
2019-02-25T00:02:14.384Z,6.61
2019-02-25T00:03:19.892Z,6.53
2019-02-25T00:04:25.399Z,6.50
2019-02-25T00:05:30.907Z,6.50
2019-02-25T00:06:36.422Z,6.47
2019-02-25T00:07:41.926Z,6.51
2019-02-25T00:08:47.432Z,6.50
2019-02-25T00:09:52.948Z,6.46
2019-02-25T00:10:58.454Z,6.50
2019-02-25T00:12:03.958Z,6.54
2019-02-25T00:13:09.459Z,6.50
2019-02-25T00:14:14.966Z,6.48
2019-02-25T00:15:20.475Z,6.35
2019-02-25T00:16:25.984Z,6.38
2019-02-25T00:17:31.512Z,6.30
2019-02-25T00:18:37.011Z,6.26
2019-02-25T00:19:42.501Z,6.22
2019-02-25T00:20:48.011Z,6.26
2019-02-25T00:21:53.515Z,6.22
2019-02-25T00:22:59.027Z,6.10
2019-02-25T00:24:04.537Z,6.13
2019-02-25T00:25:10.040Z,6.18
2019-02-25T00:26:15.547Z,6.10
2019-02-25T00:27:21.066Z,6.21
2019-02-25T00:28:26.563Z,6.09
2019-02-25T00:29:32.069Z,6.07
2019-02-25T00:30:37.581Z,6.00
2019-02-25T00:31:43.086Z,6.10
2019-02-25T00:32:48.590Z,6.10
2019-02-25T00:33:54.099Z,5.98
2019-02-25T00:34:59.603Z,6.10
2019-02-25T00:36:05.115Z,5.96
2019-02-25T00:37:10.624Z,6.04
2019-02-25T00:38:16.125Z,6.04
2019-02-25T00:39:21.634Z,6.10
2019-02-25T00:40:27.784Z,6.11
2019-02-25T00:41:32.641Z,5.98
2019-02-25T00:42:38.153Z,5.96
2019-02-25T00:43:43.671Z,6.00
2019-02-25T00:44:49.170Z,5.96
2019-02-25T00:45:54.682Z,6.03
2019-02-25T00:47:00.179Z,5.95
2019-02-25T00:48:05.691Z,5.95
2019-02-25T00:49:11.198Z,5.92
2019-02-25T00:50:16.707Z,5.95
2019-02-25T00:51:22.212Z,5.95
2019-02-25T00:52:27.722Z,5.88
2019-02-25T00:53:33.224Z,5.85
2019-02-25T00:54:38.737Z,5.92
2019-02-25T00:55:44.248Z,5.78
2019-02-25T00:56:49.745Z,5.93
2019-02-25T00:57:55.254Z,5.81
2019-02-25T00:59:00.762Z,5.78
2019-02-25T01:00:06.265Z,5.81
2019-02-25T01:01:11.774Z,5.85
2019-02-25T01:02:17.288Z,5.85
2019-02-25T01:03:22.782Z,5.70
2019-02-25T01:04:28.293Z,5.59
2019-02-25T01:05:33.802Z,5.70
2019-02-25T01:06:39.311Z,5.71
2019-02-25T01:07:44.815Z,5.71
2019-02-25T01:08:50.328Z,5.67
2019-02-25T01:09:55.830Z,5.63
2019-02-25T01:11:01.336Z,5.67
2019-02-25T01:12:06.845Z,5.67
2019-02-25T01:13:12.350Z,5.66
2019-02-25T01:14:17.858Z,5.73
2019-02-25T01:15:23.361Z,5.67
2019-02-25T01:16:28.876Z,5.68
2019-02-25T01:17:34.380Z,5.66
2019-02-25T01:18:39.887Z,5.57
2019-02-25T01:19:45.399Z,5.64
2019-02-25T01:20:50.898Z,5.70
2019-02-25T01:21:56.404Z,5.55
2019-02-25T01:23:01.915Z,5.55
2019-02-25T01:24:07.424Z,5.50
2019-02-25T01:25:12.935Z,5.55
2019-02-25T01:26:18.443Z,5.52
2019-02-25T01:27:23.937Z,5.57
2019-02-25T01:28:29.445Z,5.50
2019-02-25T01:29:34.955Z,5.52
2019-02-25T01:30:40.459Z,5.49
2019-02-25T01:31:45.985Z,5.49
2019-02-25T01:32:51.483Z,5.59
2019-02-25T01:33:57.001Z,5.60
2019-02-25T01:35:02.493Z,5.50
2019-02-25T01:36:07.990Z,5.67
2019-02-25T01:37:13.499Z,5.59
2019-02-25T01:38:19.010Z,5.64
2019-02-25T01:39:24.511Z,5.64
2019-02-25T01:40:30.024Z,5.60
2019-02-25T01:41:35.526Z,5.57
2019-02-25T01:42:41.039Z,5.55
2019-02-25T01:43:46.542Z,5.67
2019-02-25T01:44:52.048Z,5.60
2019-02-25T01:45:57.557Z,5.53
2019-02-25T01:47:03.064Z,5.59
2019-02-25T01:48:08.568Z,5.48
2019-02-25T01:49:14.069Z,5.49
2019-02-25T01:50:19.580Z,5.46
2019-02-25T01:51:25.085Z,5.49
2019-02-25T01:52:30.598Z,5.50
2019-02-25T01:53:36.102Z,5.46
2019-02-25T01:54:41.606Z,5.50
2019-02-25T01:55:47.108Z,5.50
2019-02-25T01:56:52.620Z,5.66
2019-02-25T01:57:58.127Z,5.60
2019-02-25T01:59:03.635Z,5.53
2019-02-25T02:00:09.148Z,5.56
2019-02-25T02:01:14.647Z,5.46
2019-02-25T02:02:20.153Z,5.66
2019-02-25T02:03:25.664Z,5.52
2019-02-25T02:04:31.171Z,5.59
2019-02-25T02:05:36.673Z,5.49
2019-02-25T02:06:42.179Z,5.52
2019-02-25T02:07:47.686Z,5.46
2019-02-25T02:08:53.194Z,5.49
2019-02-25T02:09:58.700Z,5.49
2019-02-25T02:11:04.208Z,5.46
2019-02-25T02:12:09.714Z,5.41
2019-02-25T02:13:15.216Z,5.48
2019-02-25T02:14:20.725Z,5.52
2019-02-25T02:15:26.248Z,5.49
2019-02-25T02:16:31.740Z,5.49
2019-02-25T02:17:37.248Z,5.59
2019-02-25T02:18:42.751Z,5.55
2019-02-25T02:19:48.259Z,5.50
2019-02-25T02:20:53.771Z,5.49
2019-02-25T02:21:59.276Z,5.52
2019-02-25T02:23:04.783Z,5.46
2019-02-25T02:24:10.293Z,5.56
2019-02-25T02:25:15.792Z,5.49
2019-02-25T02:26:21.301Z,5.52
2019-02-25T02:27:26.806Z,5.48
2019-02-25T02:28:32.312Z,5.40
2019-02-25T02:29:37.822Z,5.43
2019-02-25T02:30:43.327Z,5.40
2019-02-25T02:31:48.832Z,5.31
2019-02-25T02:32:54.339Z,5.25
2019-02-25T02:33:59.882Z,5.27
2019-02-25T02:35:05.352Z,5.34
2019-02-25T02:36:11.803Z,5.32
2019-02-25T02:37:16.361Z,5.27
2019-02-25T02:38:21.873Z,5.27
2019-02-25T02:39:27.388Z,5.25
2019-02-25T02:40:32.887Z,5.27
2019-02-25T02:41:38.393Z,5.30
2019-02-25T02:42:43.912Z,5.19
2019-02-25T02:43:49.406Z,5.19
2019-02-25T02:44:54.908Z,5.19
2019-02-25T02:46:00.418Z,5.28
2019-02-25T02:47:05.926Z,5.30
2019-02-25T02:48:11.429Z,5.35
2019-02-25T02:49:16.936Z,5.35
2019-02-25T02:50:22.449Z,5.28
2019-02-25T02:51:27.952Z,5.30
2019-02-25T02:52:33.464Z,5.34
2019-02-25T02:53:38.961Z,5.35
2019-02-25T02:54:44.476Z,5.31
2019-02-25T02:55:49.988Z,5.32
2019-02-25T02:56:55.482Z,5.30
2019-02-25T02:58:00.985Z,5.48
2019-02-25T02:59:06.504Z,5.35
2019-02-25T03:00:12.008Z,5.37
2019-02-25T03:01:17.506Z,5.37
2019-02-25T03:02:23.020Z,5.45
2019-02-25T03:03:28.518Z,5.43
2019-02-25T03:04:34.022Z,5.45
2019-02-25T03:05:39.542Z,5.52
2019-02-25T03:06:45.053Z,5.48
2019-02-25T03:07:50.550Z,5.50
2019-02-25T03:08:56.052Z,5.45
2019-02-25T03:10:01.565Z,5.41
2019-02-25T03:11:07.066Z,5.46
2019-02-25T03:12:12.572Z,5.45
2019-02-25T03:13:18.081Z,5.40
2019-02-25T03:14:23.616Z,5.40
2019-02-25T03:15:29.095Z,5.50
2019-02-25T03:16:34.603Z,5.45
2019-02-25T03:17:40.107Z,5.40
2019-02-25T03:18:45.614Z,5.35
2019-02-25T03:19:51.115Z,5.30
2019-02-25T03:20:56.651Z,5.32
2019-02-25T03:22:02.128Z,5.35
2019-02-25T03:23:07.645Z,5.28
2019-02-25T03:24:13.152Z,5.20
2019-02-25T03:25:18.665Z,5.22
2019-02-25T03:26:24.157Z,5.13
2019-02-25T03:27:29.666Z,5.09
2019-02-25T03:28:35.173Z,5.07
2019-02-25T03:29:40.677Z,4.98
2019-02-25T03:30:46.183Z,5.10
2019-02-25T03:31:51.695Z,5.07
2019-02-25T03:32:57.199Z,5.04
2019-02-25T03:34:02.710Z,5.05
2019-02-25T03:35:08.208Z,5.05
2019-02-25T03:36:13.715Z,5.05
2019-02-25T03:37:19.233Z,5.07
2019-02-25T03:38:24.727Z,5.07
2019-02-25T03:39:30.236Z,4.98
2019-02-25T03:40:35.742Z,5.09
2019-02-25T03:41:41.250Z,5.14
2019-02-25T03:42:46.750Z,5.07
2019-02-25T03:43:52.259Z,5.07
2019-02-25T03:44:57.768Z,5.02
2019-02-25T03:46:03.274Z,5.07
2019-02-25T03:47:08.775Z,5.07
2019-02-25T03:48:14.283Z,5.07
2019-02-25T03:49:19.792Z,5.07
2019-02-25T03:50:25.297Z,5.02
2019-02-25T03:51:30.803Z,5.09
2019-02-25T03:52:36.310Z,5.05
2019-02-25T03:53:41.821Z,5.05
2019-02-25T03:54:47.323Z,5.12
2019-02-25T03:55:52.829Z,5.04
2019-02-25T03:56:58.335Z,5.05
2019-02-25T03:58:03.844Z,4.98
2019-02-25T03:59:09.350Z,5.04
2019-02-25T04:00:14.851Z,4.95
2019-02-25T04:01:20.366Z,4.99
2019-02-25T04:02:25.868Z,4.96
2019-02-25T04:03:31.376Z,4.91
2019-02-25T04:04:36.879Z,4.86
2019-02-25T04:05:42.394Z,4.80
2019-02-25T04:06:47.889Z,4.88
2019-02-25T04:07:53.458Z,4.84
2019-02-25T04:08:58.901Z,4.76
2019-02-25T04:10:04.409Z,4.84
2019-02-25T04:11:09.914Z,4.86
2019-02-25T04:12:15.418Z,4.80
2019-02-25T04:13:20.928Z,4.84
2019-02-25T04:14:26.432Z,4.84
2019-02-25T04:15:31.950Z,4.89
2019-02-25T04:16:37.464Z,4.86
2019-02-25T04:17:42.955Z,4.73
2019-02-25T04:18:48.458Z,4.76
2019-02-25T04:19:53.960Z,4.73
2019-02-25T04:20:59.469Z,4.79
2019-02-25T04:22:04.978Z,4.84
2019-02-25T04:23:10.483Z,4.80
2019-02-25T04:24:15.987Z,4.76
2019-02-25T04:25:21.493Z,4.88
2019-02-25T04:26:27.003Z,4.79
2019-02-25T04:27:32.506Z,4.89
2019-02-25T04:28:38.011Z,4.86
2019-02-25T04:29:43.517Z,4.91
2019-02-25T04:30:49.027Z,4.88
2019-02-25T04:31:54.532Z,4.79
2019-02-25T04:33:00.038Z,4.89
2019-02-25T04:34:05.555Z,4.86
2019-02-25T04:35:11.053Z,4.88
2019-02-25T04:36:16.565Z,4.79
2019-02-25T04:37:22.059Z,4.77
2019-02-25T04:38:27.565Z,4.77
2019-02-25T04:39:33.074Z,4.84
2019-02-25T04:40:38.586Z,4.80
2019-02-25T04:41:44.087Z,4.76
2019-02-25T04:42:49.594Z,4.77
2019-02-25T04:43:55.820Z,4.84
2019-02-25T04:45:00.604Z,4.86
2019-02-25T04:46:06.110Z,4.83
2019-02-25T04:47:11.616Z,4.86
2019-02-25T04:48:17.144Z,4.77
2019-02-25T04:49:22.627Z,4.79
2019-02-25T04:50:28.142Z,4.75
2019-02-25T04:51:33.641Z,4.76
2019-02-25T04:52:39.145Z,4.76
2019-02-25T04:53:44.653Z,4.75
2019-02-25T04:54:50.160Z,4.75
2019-02-25T04:55:55.670Z,4.88
2019-02-25T04:57:01.169Z,4.80
2019-02-25T04:58:06.683Z,4.83
2019-02-25T04:59:12.179Z,4.76
2019-02-25T05:00:17.690Z,4.77
2019-02-25T05:01:23.193Z,4.69
2019-02-25T05:02:28.703Z,4.73
2019-02-25T05:03:34.207Z,4.64
2019-02-25T05:04:39.715Z,4.69
2019-02-25T05:05:45.215Z,4.67
2019-02-25T05:06:50.727Z,4.59
2019-02-25T05:07:56.231Z,4.65
2019-02-25T05:09:01.734Z,4.58
2019-02-25T05:10:07.242Z,4.61
2019-02-25T05:11:12.778Z,4.64
2019-02-25T05:12:18.257Z,4.61
2019-02-25T05:13:23.762Z,4.51
2019-02-25T05:14:29.264Z,4.61
2019-02-25T05:15:34.770Z,4.47
2019-02-25T05:16:40.293Z,4.51
2019-02-25T05:17:45.784Z,4.57
2019-02-25T05:18:51.286Z,4.46
2019-02-25T05:19:56.798Z,4.47
2019-02-25T05:21:02.310Z,4.51
2019-02-25T05:22:07.812Z,4.50
2019-02-25T05:23:13.316Z,4.43
2019-02-25T05:24:18.822Z,4.40
2019-02-25T05:25:24.322Z,4.42
2019-02-25T05:26:29.836Z,4.47
2019-02-25T05:27:35.338Z,4.51
2019-02-25T05:28:40.845Z,4.44
2019-02-25T05:29:46.349Z,4.51
2019-02-25T05:30:51.855Z,4.47
2019-02-25T05:31:57.370Z,4.51
2019-02-25T05:33:02.869Z,4.52
2019-02-25T05:34:08.385Z,4.52
2019-02-25T05:35:13.878Z,4.44
2019-02-25T05:36:19.385Z,4.44
2019-02-25T05:37:24.889Z,4.42
2019-02-25T05:38:30.395Z,4.47
2019-02-25T05:39:35.896Z,4.43
2019-02-25T05:40:41.408Z,4.46
2019-02-25T05:41:46.914Z,4.46
2019-02-25T05:42:52.423Z,4.50
2019-02-25T05:43:57.925Z,4.51
2019-02-25T05:45:03.436Z,4.50
2019-02-25T05:46:08.938Z,4.47
2019-02-25T05:47:14.450Z,4.55
2019-02-25T05:48:19.947Z,4.47
2019-02-25T05:49:25.473Z,4.51
2019-02-25T05:50:30.971Z,4.59
2019-02-25T05:51:36.465Z,4.50
2019-02-25T05:52:41.975Z,4.54
2019-02-25T05:53:47.485Z,4.59
2019-02-25T05:54:52.982Z,4.52
2019-02-25T05:55:58.488Z,4.61
2019-02-25T05:57:04.002Z,4.58
2019-02-25T05:58:09.500Z,4.58
2019-02-25T05:59:15.005Z,4.54
2019-02-25T06:00:20.517Z,4.59
2019-02-25T06:01:26.023Z,4.54
2019-02-25T06:02:31.526Z,4.46
2019-02-25T06:03:37.030Z,4.59
2019-02-25T06:04:42.543Z,4.55
2019-02-25T06:05:48.051Z,4.59
2019-02-25T06:06:53.550Z,4.55
2019-02-25T06:07:59.060Z,4.61
2019-02-25T06:09:04.554Z,4.47
2019-02-25T06:10:10.068Z,4.57
2019-02-25T06:11:16.342Z,4.57
2019-02-25T06:12:21.074Z,4.59
2019-02-25T06:13:26.581Z,4.64
2019-02-25T06:14:32.090Z,4.55
2019-02-25T06:15:37.605Z,4.55
2019-02-25T06:16:43.106Z,4.50
2019-02-25T06:17:48.616Z,4.44
2019-02-25T06:18:54.102Z,4.47
2019-02-25T06:19:59.618Z,4.34
2019-02-25T06:21:05.125Z,4.39
2019-02-25T06:22:10.639Z,4.26
2019-02-25T06:23:16.135Z,4.34
2019-02-25T06:24:21.630Z,4.32
2019-02-25T06:25:27.149Z,4.28
2019-02-25T06:26:32.650Z,4.32
2019-02-25T06:27:38.158Z,4.26
2019-02-25T06:28:43.685Z,4.25
2019-02-25T06:29:49.181Z,4.28
2019-02-25T06:30:54.674Z,4.26
2019-02-25T06:32:00.179Z,4.29
2019-02-25T06:33:05.706Z,4.29
2019-02-25T06:34:11.198Z,4.28
2019-02-25T06:35:16.695Z,4.32
2019-02-25T06:36:22.203Z,4.29
2019-02-25T06:37:27.719Z,4.29
2019-02-25T06:38:33.218Z,4.29
2019-02-25T06:39:38.727Z,4.32
2019-02-25T06:40:44.225Z,4.33
2019-02-25T06:41:49.738Z,4.29
2019-02-25T06:42:55.241Z,4.39
2019-02-25T06:44:00.742Z,4.37
2019-02-25T06:45:06.248Z,4.40
2019-02-25T06:46:11.748Z,4.40
2019-02-25T06:47:17.259Z,4.36
2019-02-25T06:48:22.765Z,4.29
2019-02-25T06:49:28.270Z,4.28
2019-02-25T06:50:33.787Z,4.34
2019-02-25T06:51:39.281Z,4.26
2019-02-25T06:52:44.786Z,4.42
2019-02-25T06:53:50.297Z,4.44
2019-02-25T06:54:55.805Z,4.37
2019-02-25T06:56:01.305Z,4.37
2019-02-25T06:57:06.811Z,4.34
2019-02-25T06:58:12.313Z,4.40
2019-02-25T06:59:17.820Z,4.37
2019-02-25T07:00:23.327Z,4.36
2019-02-25T07:01:28.830Z,4.33
2019-02-25T07:02:34.331Z,4.34
2019-02-25T07:03:39.841Z,4.44
2019-02-25T07:04:45.349Z,4.43
2019-02-25T07:05:51.846Z,4.52
2019-02-25T07:06:56.363Z,4.52
2019-02-25T07:08:01.866Z,4.50
2019-02-25T07:09:07.371Z,4.52
2019-02-25T07:10:12.875Z,4.51
2019-02-25T07:11:18.380Z,4.62
2019-02-25T07:12:23.890Z,4.61
2019-02-25T07:13:29.396Z,4.70
2019-02-25T07:14:34.902Z,4.65
2019-02-25T07:15:40.416Z,4.73
2019-02-25T07:16:45.913Z,4.69
2019-02-25T07:17:52.354Z,4.80
2019-02-25T07:18:56.930Z,4.72
2019-02-25T07:20:02.430Z,4.88
2019-02-25T07:21:07.925Z,4.94
2019-02-25T07:22:13.442Z,4.88
2019-02-25T07:23:18.946Z,4.91
2019-02-25T07:24:24.452Z,4.88
2019-02-25T07:25:29.961Z,4.98
2019-02-25T07:26:35.466Z,5.04
2019-02-25T07:27:42.007Z,5.10
2019-02-25T07:28:46.477Z,5.10
2019-02-25T07:29:51.980Z,5.02
2019-02-25T07:30:57.519Z,5.07
2019-02-25T07:32:02.996Z,5.10
2019-02-25T07:33:08.502Z,5.12
2019-02-25T07:34:14.008Z,5.19
2019-02-25T07:35:19.514Z,5.23
2019-02-25T07:36:25.020Z,5.23
2019-02-25T07:37:30.524Z,5.32
2019-02-25T07:38:39.491Z,5.34
2019-02-25T07:39:41.538Z,5.37
2019-02-25T07:40:47.040Z,5.40
2019-02-25T07:41:52.546Z,5.38
2019-02-25T07:42:58.056Z,5.48
2019-02-25T07:44:03.568Z,5.49
2019-02-25T07:45:09.078Z,5.55
2019-02-25T07:46:14.581Z,5.55
2019-02-25T07:47:20.086Z,5.57
2019-02-25T07:48:25.590Z,5.64
2019-02-25T07:49:31.084Z,5.64
2019-02-25T07:50:36.599Z,5.68
2019-02-25T07:51:42.106Z,5.70
2019-02-25T07:52:47.609Z,5.81
2019-02-25T07:53:53.137Z,5.81
2019-02-25T07:54:58.622Z,5.83
2019-02-25T07:56:04.129Z,5.96
2019-02-25T07:57:09.646Z,5.92
2019-02-25T07:58:15.147Z,6.04
2019-02-25T07:59:20.649Z,6.00
2019-02-25T08:00:26.175Z,6.09
2019-02-25T08:01:31.662Z,6.06
2019-02-25T08:02:37.199Z,6.16
2019-02-25T08:03:42.673Z,6.28
2019-02-25T08:04:48.182Z,6.21
2019-02-25T08:05:53.693Z,6.35
2019-02-25T08:06:59.198Z,6.38
2019-02-25T08:08:04.705Z,6.44
2019-02-25T08:09:10.206Z,6.51
2019-02-25T08:10:15.714Z,6.47
2019-02-25T08:11:21.864Z,6.56
2019-02-25T08:12:26.730Z,6.63
2019-02-25T08:13:32.245Z,6.65
2019-02-25T08:14:37.746Z,6.73
2019-02-25T08:15:43.251Z,6.76
2019-02-25T08:16:48.755Z,6.81
2019-02-25T08:17:54.271Z,6.87
2019-02-25T08:18:59.769Z,6.90
2019-02-25T08:20:05.284Z,6.98
2019-02-25T08:21:10.782Z,6.99
2019-02-25T08:22:16.291Z,7.04
2019-02-25T08:23:21.800Z,7.13
2019-02-25T08:24:30.479Z,7.24
2019-02-25T08:25:32.818Z,7.23
2019-02-25T08:26:38.322Z,7.27
2019-02-25T08:27:43.828Z,7.38
2019-02-25T08:28:49.337Z,7.38
2019-02-25T08:29:54.842Z,7.49
2019-02-25T08:31:00.352Z,7.58
2019-02-25T08:32:05.860Z,7.63
2019-02-25T08:33:11.364Z,7.55
2019-02-25T08:34:18.901Z,7.63
2019-02-25T08:35:22.381Z,7.77
2019-02-25T08:36:27.889Z,7.82
2019-02-25T08:37:33.402Z,7.90
2019-02-25T08:38:38.905Z,8.00
2019-02-25T08:39:44.413Z,7.99
2019-02-25T08:40:49.923Z,8.14
2019-02-25T08:41:55.436Z,8.22
2019-02-25T08:43:00.938Z,8.18
2019-02-25T08:44:06.446Z,8.25
2019-02-25T08:45:11.952Z,8.32
2019-02-25T08:46:17.464Z,8.40
2019-02-25T08:47:22.968Z,8.47
2019-02-25T08:48:28.474Z,8.58
2019-02-25T08:49:33.983Z,8.58
2019-02-25T08:50:39.495Z,8.69
2019-02-25T08:51:45.002Z,8.84
2019-02-25T08:52:50.509Z,8.86
2019-02-25T08:53:56.018Z,8.93
2019-02-25T08:55:01.527Z,8.96
2019-02-25T08:56:07.034Z,9.02
2019-02-25T08:57:12.552Z,9.06
2019-02-25T08:58:18.050Z,9.13
2019-02-25T08:59:23.555Z,9.31
2019-02-25T09:00:29.066Z,9.27
2019-02-25T09:01:34.575Z,9.31
2019-02-25T09:02:40.089Z,9.49
2019-02-25T09:03:45.594Z,9.58
2019-02-25T09:04:51.103Z,9.56
2019-02-25T09:05:56.613Z,9.67
2019-02-25T09:07:02.122Z,9.86
2019-02-25T09:08:07.632Z,9.82
2019-02-25T09:09:13.141Z,10.01
2019-02-25T09:10:18.649Z,10.04
2019-02-25T09:11:24.160Z,10.07
2019-02-25T09:12:29.665Z,10.22
2019-02-25T09:13:35.171Z,10.32
2019-02-25T09:14:40.685Z,10.36
2019-02-25T09:15:46.191Z,10.51
2019-02-25T09:16:51.713Z,10.55
2019-02-25T09:17:57.209Z,10.65
2019-02-25T09:19:02.723Z,10.78
2019-02-25T09:20:08.233Z,10.88
2019-02-25T09:21:13.748Z,10.88
2019-02-25T09:22:19.248Z,10.96
2019-02-25T09:23:24.769Z,10.99
2019-02-25T09:24:30.270Z,11.10
2019-02-25T09:25:35.779Z,11.21
2019-02-25T09:26:41.290Z,11.34
2019-02-25T09:27:46.797Z,11.41
2019-02-25T09:28:52.307Z,11.38
2019-02-25T09:29:57.825Z,11.49
2019-02-25T09:31:05.546Z,11.49
2019-02-25T09:32:08.842Z,11.62
2019-02-25T09:33:14.347Z,11.68
2019-02-25T09:34:19.861Z,11.70
2019-02-25T09:35:25.370Z,11.80
2019-02-25T09:36:30.880Z,11.86
2019-02-25T09:37:37.299Z,11.89
2019-02-25T09:38:41.899Z,12.06
2019-02-25T09:39:47.407Z,12.06
2019-02-25T09:40:52.919Z,12.24
2019-02-25T09:41:58.429Z,12.30
2019-02-25T09:43:03.938Z,12.26
2019-02-25T09:44:09.453Z,12.41
2019-02-25T09:45:14.960Z,12.39
2019-02-25T09:46:20.470Z,12.49
2019-02-25T09:47:25.984Z,12.51
2019-02-25T09:48:31.496Z,12.60
2019-02-25T09:49:37.010Z,12.63
2019-02-25T09:50:42.524Z,12.71
2019-02-25T09:51:48.027Z,12.78
2019-02-25T09:52:53.532Z,12.88
2019-02-25T09:53:59.047Z,12.84
2019-02-25T09:55:04.556Z,13.03
2019-02-25T09:56:10.070Z,13.07
2019-02-25T09:57:15.587Z,13.07
2019-02-25T09:58:21.089Z,13.14
2019-02-25T09:59:26.599Z,13.21
2019-02-25T10:00:32.122Z,13.33
2019-02-25T10:01:37.622Z,13.32
2019-02-25T10:02:43.149Z,13.38
2019-02-25T10:03:48.650Z,13.46
2019-02-25T10:04:54.154Z,13.51
2019-02-25T10:05:59.670Z,13.55
2019-02-25T10:07:05.179Z,13.58
2019-02-25T10:08:10.715Z,13.69
2019-02-25T10:09:16.202Z,13.67
2019-02-25T10:10:21.714Z,13.79
2019-02-25T10:11:27.227Z,13.91
2019-02-25T10:12:32.730Z,13.91
2019-02-25T10:13:38.249Z,13.98
2019-02-25T10:14:43.762Z,14.07
2019-02-25T10:15:49.273Z,14.01
2019-02-25T10:16:54.782Z,14.14
2019-02-25T10:18:00.294Z,14.21
2019-02-25T10:19:05.805Z,14.32
2019-02-25T10:20:11.310Z,14.25
2019-02-25T10:21:16.828Z,14.35
2019-02-25T10:22:22.343Z,14.34
2019-02-25T10:23:27.855Z,14.42
2019-02-25T10:24:33.369Z,14.37
2019-02-25T10:25:38.879Z,14.31
2019-02-25T10:26:44.390Z,14.32
2019-02-25T10:27:49.935Z,14.38
2019-02-25T10:28:55.421Z,14.38
2019-02-25T10:30:00.939Z,14.54
2019-02-25T10:31:06.439Z,14.54
2019-02-25T10:32:11.948Z,14.61
2019-02-25T10:33:17.463Z,14.64
2019-02-25T10:34:24.078Z,14.69
2019-02-25T10:35:28.487Z,14.69
2019-02-25T10:36:34.000Z,14.80
2019-02-25T10:37:41.428Z,14.84
2019-02-25T10:38:45.031Z,14.88
2019-02-25T10:39:51.459Z,14.94
2019-02-25T10:40:56.054Z,14.95
2019-02-25T10:42:01.751Z,15.03
2019-02-25T10:43:07.078Z,15.01
2019-02-25T10:44:12.588Z,15.19
2019-02-25T10:45:18.091Z,15.27
2019-02-25T10:46:23.608Z,15.21
2019-02-25T10:47:29.122Z,15.26
2019-02-25T10:48:34.631Z,15.31
2019-02-25T10:49:40.152Z,15.35
2019-02-25T10:50:45.721Z,15.38
2019-02-25T10:51:51.173Z,15.41
2019-02-25T10:53:03.215Z,15.43
2019-02-25T10:54:02.191Z,15.49
2019-02-25T10:55:07.712Z,15.42
2019-02-25T10:56:14.503Z,15.54
2019-02-25T10:57:19.409Z,15.49
2019-02-25T10:58:25.293Z,15.61
2019-02-25T10:59:31.817Z,15.66
2019-02-25T11:00:37.270Z,15.72
2019-02-25T11:01:41.424Z,15.81
2019-02-25T11:02:47.305Z,15.94
2019-02-25T11:03:52.632Z,16.06
2019-02-25T11:04:57.736Z,16.04
2019-02-25T11:06:03.280Z,16.16
2019-02-25T11:07:09.647Z,16.26
2019-02-25T11:08:13.972Z,16.22
2019-02-25T11:09:19.386Z,16.33
2019-02-25T11:10:24.889Z,16.40
2019-02-25T11:11:30.400Z,16.42
2019-02-25T11:12:35.915Z,16.41
2019-02-25T11:13:41.437Z,16.53
2019-02-25T11:14:46.946Z,16.60
2019-02-25T11:15:52.456Z,16.65
2019-02-25T11:16:57.974Z,16.71
2019-02-25T11:18:03.486Z,16.78
2019-02-25T11:19:08.994Z,16.80
2019-02-25T11:20:14.508Z,16.85
2019-02-25T11:21:20.022Z,16.77
2019-02-25T11:22:25.530Z,16.80
2019-02-25T11:23:31.051Z,16.92
2019-02-25T11:24:36.554Z,16.96
2019-02-25T11:25:42.074Z,17.08
2019-02-25T11:26:47.594Z,17.10
2019-02-25T11:27:53.103Z,17.10
2019-02-25T11:28:58.616Z,17.15
2019-02-25T11:30:04.131Z,17.15
2019-02-25T11:31:09.645Z,17.25
2019-02-25T11:32:15.157Z,17.28
2019-02-25T11:33:22.738Z,17.35
2019-02-25T11:34:26.183Z,17.33
2019-02-25T11:35:31.706Z,17.35
2019-02-25T11:36:37.214Z,17.53
2019-02-25T11:37:42.726Z,17.48
2019-02-25T11:38:48.239Z,17.62
2019-02-25T11:39:54.971Z,17.64
2019-02-25T11:40:59.806Z,17.70
2019-02-25T11:42:06.117Z,17.63
2019-02-25T11:43:11.198Z,17.74
2019-02-25T11:44:17.130Z,17.73
2019-02-25T11:45:21.324Z,17.79
2019-02-25T11:46:26.835Z,17.74
2019-02-25T11:47:32.348Z,17.84
2019-02-25T11:48:37.865Z,17.85
2019-02-25T11:49:43.377Z,17.92
2019-02-25T11:50:48.892Z,17.97
2019-02-25T11:51:54.407Z,17.89
2019-02-25T11:52:59.919Z,18.03
2019-02-25T11:54:05.434Z,18.02
2019-02-25T11:55:10.962Z,18.02
2019-02-25T11:56:16.466Z,18.21
2019-02-25T11:57:21.998Z,18.18
2019-02-25T11:58:27.492Z,18.12
2019-02-25T11:59:32.999Z,18.22
2019-02-25T12:00:39.887Z,18.24
2019-02-25T12:01:44.028Z,18.31
2019-02-25T12:02:49.547Z,18.36
2019-02-25T12:03:55.062Z,18.33
2019-02-25T12:05:00.587Z,18.39
2019-02-25T12:06:06.090Z,18.43
2019-02-25T12:07:11.605Z,18.47
2019-02-25T12:08:17.121Z,18.52
2019-02-25T12:09:22.635Z,18.58
2019-02-25T12:10:28.164Z,18.59
2019-02-25T12:11:33.668Z,18.55
2019-02-25T12:12:39.179Z,18.59
2019-02-25T12:13:44.693Z,18.67
2019-02-25T12:14:50.219Z,18.68
2019-02-25T12:15:55.739Z,18.73
2019-02-25T12:17:01.265Z,18.79
2019-02-25T12:18:06.752Z,18.91
2019-02-25T12:19:17.997Z,18.97
2019-02-25T12:20:17.780Z,19.10
2019-02-25T12:21:23.296Z,19.14
2019-02-25T12:22:28.811Z,19.33
2019-02-25T12:23:34.328Z,19.36
2019-02-25T12:24:39.841Z,19.51
2019-02-25T12:25:45.358Z,19.63
2019-02-25T12:26:50.872Z,19.76
2019-02-25T12:27:56.389Z,19.88
2019-02-25T12:29:10.581Z,20.03
2019-02-25T12:30:07.415Z,20.18
2019-02-25T12:31:12.933Z,20.24
2019-02-25T12:32:18.449Z,20.12
2019-02-25T12:33:23.969Z,20.16
2019-02-25T12:34:29.475Z,20.21
2019-02-25T12:35:34.992Z,20.18
2019-02-25T12:36:40.511Z,20.24
2019-02-25T12:37:46.021Z,20.28
2019-02-25T12:38:51.555Z,20.20
2019-02-25T12:39:57.057Z,20.34
2019-02-25T12:41:02.570Z,20.43
2019-02-25T12:42:08.084Z,20.47
2019-02-25T12:43:13.602Z,20.58
2019-02-25T12:44:19.112Z,20.68
2019-02-25T12:45:24.630Z,20.76
2019-02-25T12:46:30.150Z,20.89
2019-02-25T12:47:35.665Z,21.06
2019-02-25T12:48:41.179Z,21.08
2019-02-25T12:49:46.700Z,21.20
2019-02-25T12:50:52.218Z,21.24
2019-02-25T12:51:57.736Z,21.39
2019-02-25T12:53:03.256Z,21.63
2019-02-25T12:54:08.780Z,21.83
2019-02-25T12:55:14.293Z,22.07
2019-02-25T12:56:19.814Z,22.25
2019-02-25T12:57:25.333Z,22.54
2019-02-25T12:58:30.850Z,22.77
2019-02-25T12:59:36.378Z,22.93
2019-02-25T13:00:41.904Z,23.19
2019-02-25T13:01:47.407Z,23.46
2019-02-25T13:02:52.941Z,23.61
2019-02-25T13:03:58.457Z,23.77
2019-02-25T13:05:03.982Z,24.01
2019-02-25T13:06:09.493Z,24.16
2019-02-25T13:07:15.017Z,24.41
2019-02-25T13:08:20.548Z,24.45
2019-02-25T13:09:26.069Z,24.60
2019-02-25T13:10:31.590Z,24.71
2019-02-25T13:11:37.103Z,24.98
2019-02-25T13:12:42.633Z,25.16
2019-02-25T13:13:48.156Z,25.19
2019-02-25T13:14:53.672Z,25.84
2019-02-25T13:15:59.187Z,27.32
2019-02-25T13:17:04.713Z,29.22
2019-02-25T13:18:10.261Z,30.99
2019-02-25T13:19:15.764Z,32.43
2019-02-25T13:20:21.285Z,33.89
2019-02-25T13:21:26.813Z,35.07
2019-02-25T13:22:32.332Z,35.81
2019-02-25T13:23:37.856Z,36.58
2019-02-25T13:24:43.382Z,37.43
2019-02-25T13:25:48.955Z,38.26
2019-02-25T13:26:54.436Z,38.80
2019-02-25T13:28:01.498Z,39.39
2019-02-25T13:29:05.471Z,39.95
2019-02-25T13:30:11.004Z,40.64
2019-02-25T13:31:16.530Z,41.22
2019-02-25T13:32:22.060Z,41.52
2019-02-25T13:33:27.598Z,41.66
2019-02-25T13:34:33.113Z,41.83
2019-02-25T13:35:38.639Z,42.27
2019-02-25T13:36:44.166Z,42.39
2019-02-25T13:37:49.697Z,42.19
2019-02-25T13:38:55.221Z,41.97
2019-02-25T13:40:00.747Z,41.96
2019-02-25T13:41:06.284Z,42.03
2019-02-25T13:42:11.804Z,42.05
2019-02-25T13:43:17.329Z,42.00
2019-02-25T13:44:22.865Z,42.01
2019-02-25T13:45:28.387Z,41.91
2019-02-25T13:46:33.937Z,41.96
2019-02-25T13:47:39.462Z,42.05
2019-02-25T13:48:44.977Z,42.41
2019-02-25T13:49:50.506Z,42.63
2019-02-25T13:50:56.038Z,42.92
2019-02-25T13:52:01.559Z,43.06
2019-02-25T13:53:07.089Z,42.94
2019-02-25T13:54:12.616Z,43.09
2019-02-25T13:55:18.150Z,43.13
2019-02-25T13:56:23.685Z,43.27
2019-02-25T13:57:29.207Z,43.30
2019-02-25T13:58:34.731Z,43.39
2019-02-25T13:59:40.271Z,43.56
2019-02-25T14:00:45.799Z,43.75
2019-02-25T14:01:51.332Z,43.83
2019-02-25T14:02:56.852Z,43.94
2019-02-25T14:04:02.393Z,43.99
2019-02-25T14:05:07.916Z,44.17
2019-02-25T14:06:13.443Z,44.28
2019-02-25T14:07:18.974Z,44.10
2019-02-25T14:08:24.514Z,44.05
2019-02-25T14:09:30.034Z,43.70
2019-02-25T14:10:35.566Z,43.57
2019-02-25T14:11:41.094Z,43.27
2019-02-25T14:12:46.625Z,43.00
2019-02-25T14:13:52.150Z,42.81
2019-02-25T14:14:57.678Z,42.56
2019-02-25T14:16:03.211Z,42.17
2019-02-25T14:17:08.738Z,42.15
2019-02-25T14:18:14.265Z,41.88
2019-02-25T14:19:19.802Z,41.59
2019-02-25T14:20:25.324Z,41.47